sensor_id;sensor_type;location;lat;lon;timestamp;pressure;altitude;pressure_sealevel;temperature;humidity
47726;BME280;33483;48.294;16.388;2023-04-21T00:01:13;99580.84;;;6.06;100.00
47726;BME280;33483;48.294;16.388;2023-04-21T00:03:41;99579.09;;;6.03;100.00
47726;BME280;33483;48.294;16.388;2023-04-21T00:06:10;99577.31;;;6.00;100.00
47726;BME280;33483;48.294;16.388;2023-04-21T00:08:40;99573.06;;;5.99;100.00
47726;BME280;33483;48.294;16.388;2023-04-21T00:11:08;99567.31;;;5.97;100.00
47726;BME280;33483;48.294;16.388;2023-04-21T00:13:36;99574.28;;;5.98;100.00
47726;BME280;33483;48.294;16.388;2023-04-21T00:16:11;99569.78;;;5.95;100.00
47726;BME280;33483;48.294;16.388;2023-04-21T00:18:39;99572.53;;;5.95;100.00
47726;BME280;33483;48.294;16.388;2023-04-21T00:21:06;99563.78;;;5.91;100.00
47726;BME280;33483;48.294;16.388;2023-04-21T00:23:35;99566.03;;;5.93;100.00
47726;BME280;33483;48.294;16.388;2023-04-21T00:26:04;99565.03;;;5.90;100.00
47726;BME280;33483;48.294;16.388;2023-04-21T00:28:31;99562.50;;;5.87;100.00
47726;BME280;33483;48.294;16.388;2023-04-21T00:31:04;99555.28;;;5.89;100.00
47726;BME280;33483;48.294;16.388;2023-04-21T00:33:33;99563.53;;;5.89;100.00
47726;BME280;33483;48.294;16.388;2023-04-21T00:36:03;99557.53;;;5.91;100.00
47726;BME280;33483;48.294;16.388;2023-04-21T00:38:30;99558.25;;;5.91;100.00
47726;BME280;33483;48.294;16.388;2023-04-21T00:41:00;99556.25;;;5.86;100.00
47726;BME280;33483;48.294;16.388;2023-04-21T00:43:28;99553.69;;;5.77;100.00
47726;BME280;33483;48.294;16.388;2023-04-21T00:45:56;99550.19;;;5.71;100.00
47726;BME280;33483;48.294;16.388;2023-04-21T00:48:24;99552.63;;;5.63;100.00
47726;BME280;33483;48.294;16.388;2023-04-21T00:50:53;99561.88;;;5.60;100.00
47726;BME280;33483;48.294;16.388;2023-04-21T00:53:24;99565.34;;;5.55;100.00
47726;BME280;33483;48.294;16.388;2023-04-21T00:55:52;99561.09;;;5.54;100.00
47726;BME280;33483;48.294;16.388;2023-04-21T00:58:20;99559.31;;;5.51;100.00
47726;BME280;33483;48.294;16.388;2023-04-21T01:00:47;99557.84;;;5.50;100.00
47726;BME280;33483;48.294;16.388;2023-04-21T01:03:16;99549.31;;;5.48;100.00
47726;BME280;33483;48.294;16.388;2023-04-21T01:05:45;99559.81;;;5.50;100.00
47726;BME280;33483;48.294;16.388;2023-04-21T01:08:14;99557.06;;;5.50;100.00
47726;BME280;33483;48.294;16.388;2023-04-21T01:10:44;99556.81;;;5.48;100.00
47726;BME280;33483;48.294;16.388;2023-04-21T01:13:12;99560.56;;;5.45;100.00
47726;BME280;33483;48.294;16.388;2023-04-21T01:15:40;99555.50;;;5.38;100.00
47726;BME280;33483;48.294;16.388;2023-04-21T01:18:09;99561.53;;;5.42;100.00
47726;BME280;33483;48.294;16.388;2023-04-21T01:20:41;99557.78;;;5.39;100.00
47726;BME280;33483;48.294;16.388;2023-04-21T01:23:13;99563.50;;;5.36;100.00
47726;BME280;33483;48.294;16.388;2023-04-21T01:25:43;99559.97;;;5.30;100.00
47726;BME280;33483;48.294;16.388;2023-04-21T01:28:12;99551.75;;;5.30;100.00
47726;BME280;33483;48.294;16.388;2023-04-21T01:30:49;99559.22;;;5.29;100.00
47726;BME280;33483;48.294;16.388;2023-04-21T01:33:16;99558.16;;;5.21;100.00
47726;BME280;33483;48.294;16.388;2023-04-21T01:35:44;99556.66;;;5.20;100.00
47726;BME280;33483;48.294;16.388;2023-04-21T01:38:12;99544.19;;;5.19;100.00
47726;BME280;33483;48.294;16.388;2023-04-21T01:40:40;99548.16;;;5.18;100.00
47726;BME280;33483;48.294;16.388;2023-04-21T01:43:09;99554.88;;;5.12;100.00
47726;BME280;33483;48.294;16.388;2023-04-21T01:45:38;99550.34;;;5.09;100.00
47726;BME280;33483;48.294;16.388;2023-04-21T01:48:07;99552.84;;;5.07;100.00
47726;BME280;33483;48.294;16.388;2023-04-21T01:50:35;99556.06;;;5.05;100.00
47726;BME280;33483;48.294;16.388;2023-04-21T01:53:09;99552.84;;;5.07;100.00
47726;BME280;33483;48.294;16.388;2023-04-21T01:55:38;99543.31;;;5.02;100.00
47726;BME280;33483;48.294;16.388;2023-04-21T01:58:09;99550.81;;;5.02;100.00
47726;BME280;33483;48.294;16.388;2023-04-21T02:00:42;99546.53;;;5.01;100.00
47726;BME280;33483;48.294;16.388;2023-04-21T02:03:09;99544.28;;;4.99;100.00
47726;BME280;33483;48.294;16.388;2023-04-21T02:05:40;99547.03;;;4.99;100.00
47726;BME280;33483;48.294;16.388;2023-04-21T02:08:13;99550.28;;;4.98;100.00
47726;BME280;33483;48.294;16.388;2023-04-21T02:10:42;99546.50;;;4.95;100.00
47726;BME280;33483;48.294;16.388;2023-04-21T02:13:13;99545.50;;;4.93;100.00
47726;BME280;33483;48.294;16.388;2023-04-21T02:15:44;99549.72;;;4.94;100.00
47726;BME280;33483;48.294;16.388;2023-04-21T02:18:13;99555.22;;;4.94;100.00
47726;BME280;33483;48.294;16.388;2023-04-21T02:20:43;99546.50;;;4.95;100.00
47726;BME280;33483;48.294;16.388;2023-04-21T02:23:12;99550.28;;;4.98;100.00
47726;BME280;33483;48.294;16.388;2023-04-21T02:25:42;99543.53;;;4.99;100.00
47726;BME280;33483;48.294;16.388;2023-04-21T02:28:11;99551.44;;;5.22;100.00
47726;BME280;33483;48.294;16.388;2023-04-21T02:30:39;99548.66;;;5.17;100.00
47726;BME280;33483;48.294;16.388;2023-04-21T02:33:09;99547.00;;;5.36;100.00
47726;BME280;33483;48.294;16.388;2023-04-21T02:35:37;99551.75;;;5.35;100.00
47726;BME280;33483;48.294;16.388;2023-04-21T02:38:04;99549.75;;;5.36;100.00
47726;BME280;33483;48.294;16.388;2023-04-21T02:40:37;99542.00;;;5.34;100.00
47726;BME280;33483;48.294;16.388;2023-04-21T02:43:04;99542.50;;;5.33;100.00
47726;BME280;33483;48.294;16.388;2023-04-21T02:45:33;99541.22;;;5.28;100.00
47726;BME280;33483;48.294;16.388;2023-04-21T02:48:00;99539.94;;;5.24;100.00
47726;BME280;33483;48.294;16.388;2023-04-21T02:50:29;99541.44;;;5.19;100.00
47726;BME280;33483;48.294;16.388;2023-04-21T02:52:58;99538.16;;;5.15;100.00
47726;BME280;33483;48.294;16.388;2023-04-21T02:55:25;99541.63;;;5.10;100.00
47726;BME280;33483;48.294;16.388;2023-04-21T02:57:53;99549.59;;;5.08;100.00
47726;BME280;33483;48.294;16.388;2023-04-21T03:00:23;99548.34;;;5.09;100.00
47726;BME280;33483;48.294;16.388;2023-04-21T03:02:54;99555.09;;;5.08;100.00
47726;BME280;33483;48.294;16.388;2023-04-21T03:05:23;99550.31;;;5.03;100.00
47726;BME280;33483;48.294;16.388;2023-04-21T03:07:50;99557.53;;;5.01;100.00
47726;BME280;33483;48.294;16.388;2023-04-21T03:10:18;99552.53;;;4.99;100.00
47726;BME280;33483;48.294;16.388;2023-04-21T03:12:47;99544.25;;;4.94;100.00
47726;BME280;33483;48.294;16.388;2023-04-21T03:15:16;99552.44;;;4.88;100.00
47726;BME280;33483;48.294;16.388;2023-04-21T03:17:46;99558.41;;;4.87;100.00
47726;BME280;33483;48.294;16.388;2023-04-21T03:20:14;99555.16;;;4.83;100.00
47726;BME280;33483;48.294;16.388;2023-04-21T03:22:42;99551.16;;;4.84;100.00
47726;BME280;33483;48.294;16.388;2023-04-21T03:25:10;99552.91;;;4.81;100.00
47726;BME280;33483;48.294;16.388;2023-04-21T03:27:40;99554.91;;;4.81;100.00
47726;BME280;33483;48.294;16.388;2023-04-21T03:30:08;99563.34;;;4.77;100.00
47726;BME280;33483;48.294;16.388;2023-04-21T03:32:36;99556.09;;;4.74;100.00
47726;BME280;33483;48.294;16.388;2023-04-21T03:35:07;99553.56;;;4.71;100.00
47726;BME280;33483;48.294;16.388;2023-04-21T03:37:34;99546.56;;;4.70;100.00
47726;BME280;33483;48.294;16.388;2023-04-21T03:40:02;99540.09;;;4.73;100.00
47726;BME280;33483;48.294;16.388;2023-04-21T03:42:34;99547.31;;;4.70;100.00
47726;BME280;33483;48.294;16.388;2023-04-21T03:45:08;99539.81;;;4.65;100.00
47726;BME280;33483;48.294;16.388;2023-04-21T03:47:37;99541.78;;;4.65;100.00
47726;BME280;33483;48.294;16.388;2023-04-21T03:50:05;99539.03;;;4.65;100.00
47726;BME280;33483;48.294;16.388;2023-04-21T03:52:35;99546.25;;;4.62;100.00
47726;BME280;33483;48.294;16.388;2023-04-21T03:55:07;99547.22;;;4.59;100.00
47726;BME280;33483;48.294;16.388;2023-04-21T03:57:41;99545.25;;;4.59;100.00
47726;BME280;33483;48.294;16.388;2023-04-21T04:00:09;99549.47;;;4.60;100.00
47726;BME280;33483;48.294;16.388;2023-04-21T04:02:44;99557.44;;;4.58;100.00
47726;BME280;33483;48.294;16.388;2023-04-21T04:05:12;99560.19;;;4.58;100.00
47726;BME280;33483;48.294;16.388;2023-04-21T04:07:42;99565.44;;;4.56;100.00
47726;BME280;33483;48.294;16.388;2023-04-21T04:10:10;99558.41;;;4.55;100.00
47726;BME280;33483;48.294;16.388;2023-04-21T04:12:39;99567.91;;;4.54;100.00
47726;BME280;33483;48.294;16.388;2023-04-21T04:15:10;99573.66;;;4.56;100.00
47726;BME280;33483;48.294;16.388;2023-04-21T04:17:37;99570.91;;;4.56;100.00
47726;BME280;33483;48.294;16.388;2023-04-21T04:20:07;99565.69;;;4.58;100.00
47726;BME280;33483;48.294;16.388;2023-04-21T04:22:35;99565.47;;;4.62;100.00
47726;BME280;33483;48.294;16.388;2023-04-21T04:25:03;99569.78;;;4.69;100.00
47726;BME280;33483;48.294;16.388;2023-04-21T04:27:33;99585.81;;;4.76;100.00
47726;BME280;33483;48.294;16.388;2023-04-21T04:30:02;99588.13;;;4.83;100.00
47726;BME280;33483;48.294;16.388;2023-04-21T04:32:30;99588.94;;;4.94;100.00
47726;BME280;33483;48.294;16.388;2023-04-21T04:35:00;99588.50;;;5.01;100.00
47726;BME280;33483;48.294;16.388;2023-04-21T04:37:30;99591.56;;;5.09;100.00
47726;BME280;33483;48.294;16.388;2023-04-21T04:40:00;99583.09;;;5.18;100.00
47726;BME280;33483;48.294;16.388;2023-04-21T04:42:28;99580.94;;;5.27;100.00
47726;BME280;33483;48.294;16.388;2023-04-21T04:44:59;99576.25;;;5.39;100.00
47726;BME280;33483;48.294;16.388;2023-04-21T04:47:29;99589.31;;;5.49;100.00
47726;BME280;33483;48.294;16.388;2023-04-21T04:49:56;99582.38;;;5.65;100.00
47726;BME280;33483;48.294;16.388;2023-04-21T04:52:23;99593.69;;;5.78;100.00
47726;BME280;33483;48.294;16.388;2023-04-21T04:54:51;99587.03;;;5.90;100.00
47726;BME280;33483;48.294;16.388;2023-04-21T04:57:20;99598.59;;;6.00;100.00
47726;BME280;33483;48.294;16.388;2023-04-21T04:59:47;99598.59;;;6.11;100.00
47726;BME280;33483;48.294;16.388;2023-04-21T05:02:14;99594.13;;;6.19;100.00
47726;BME280;33483;48.294;16.388;2023-04-21T05:04:42;99604.94;;;6.39;100.00
47726;BME280;33483;48.294;16.388;2023-04-21T05:07:10;99600.94;;;6.51;100.00
47726;BME280;33483;48.294;16.388;2023-04-21T05:09:37;99607.75;;;6.77;100.00
47726;BME280;33483;48.294;16.388;2023-04-21T05:12:04;99609.50;;;7.25;100.00
47726;BME280;33483;48.294;16.388;2023-04-21T05:14:34;99620.22;;;7.45;100.00
47726;BME280;33483;48.294;16.388;2023-04-21T05:17:01;99611.69;;;7.48;100.00
47726;BME280;33483;48.294;16.388;2023-04-21T05:19:30;99614.44;;;7.65;100.00
47726;BME280;33483;48.294;16.388;2023-04-21T05:21:57;99615.16;;;7.76;100.00
47726;BME280;33483;48.294;16.388;2023-04-21T05:24:27;99615.84;;;7.88;100.00
47726;BME280;33483;48.294;16.388;2023-04-21T05:26:54;99622.84;;;8.00;100.00
47726;BME280;33483;48.294;16.388;2023-04-21T05:29:24;99630.50;;;8.35;100.00
47726;BME280;33483;48.294;16.388;2023-04-21T05:31:51;99619.09;;;8.49;100.00
47726;BME280;33483;48.294;16.388;2023-04-21T05:34:19;99627.81;;;8.64;100.00
47726;BME280;33483;48.294;16.388;2023-04-21T05:36:47;99632.69;;;8.82;100.00
47726;BME280;33483;48.294;16.388;2023-04-21T05:39:15;99627.25;;;9.06;100.00
47726;BME280;33483;48.294;16.388;2023-04-21T05:41:44;99630.50;;;9.35;100.00
47726;BME280;33483;48.294;16.388;2023-04-21T05:44:12;99640.44;;;9.49;100.00
47726;BME280;33483;48.294;16.388;2023-04-21T05:46:39;99636.09;;;9.59;100.00
47726;BME280;33483;48.294;16.388;2023-04-21T05:49:07;99634.28;;;10.09;100.00
47726;BME280;33483;48.294;16.388;2023-04-21T05:51:37;99644.72;;;10.59;100.00
47726;BME280;33483;48.294;16.388;2023-04-21T05:54:05;99651.13;;;10.67;100.00
47726;BME280;33483;48.294;16.388;2023-04-21T05:56:33;99647.72;;;10.61;100.00
47726;BME280;33483;48.294;16.388;2023-04-21T05:59:00;99651.59;;;10.71;100.00
47726;BME280;33483;48.294;16.388;2023-04-21T06:01:28;99663.66;;;11.24;100.00
47726;BME280;33483;48.294;16.388;2023-04-21T06:03:58;99665.56;;;12.39;100.00
47726;BME280;33483;48.294;16.388;2023-04-21T06:06:25;99667.59;;;12.52;100.00
47726;BME280;33483;48.294;16.388;2023-04-21T06:08:55;99667.06;;;12.40;100.00
47726;BME280;33483;48.294;16.388;2023-04-21T06:11:23;99670.72;;;12.22;100.00
47726;BME280;33483;48.294;16.388;2023-04-21T06:13:53;99676.28;;;12.09;100.00
47726;BME280;33483;48.294;16.388;2023-04-21T06:16:24;99668.81;;;12.04;100.00
47726;BME280;33483;48.294;16.388;2023-04-21T06:18:54;99672.66;;;12.27;100.00
47726;BME280;33483;48.294;16.388;2023-04-21T06:21:24;99676.22;;;12.61;100.00
47726;BME280;33483;48.294;16.388;2023-04-21T06:23:53;99664.59;;;12.83;100.00
47726;BME280;33483;48.294;16.388;2023-04-21T06:26:22;99669.88;;;12.74;100.00
47726;BME280;33483;48.294;16.388;2023-04-21T06:28:50;99672.47;;;13.05;100.00
47726;BME280;33483;48.294;16.388;2023-04-21T06:31:18;99675.59;;;13.22;100.00
47726;BME280;33483;48.294;16.388;2023-04-21T06:33:46;99667.16;;;13.15;100.00
47726;BME280;33483;48.294;16.388;2023-04-21T06:36:15;99668.47;;;13.14;100.00
47726;BME280;33483;48.294;16.388;2023-04-21T06:38:46;99677.91;;;14.29;100.00
47726;BME280;33483;48.294;16.388;2023-04-21T06:41:15;99688.66;;;15.41;100.00
47726;BME280;33483;48.294;16.388;2023-04-21T06:43:44;99694.19;;;17.19;96.86
47726;BME280;33483;48.294;16.388;2023-04-21T06:46:14;99687.63;;;18.49;78.75
47726;BME280;33483;48.294;16.388;2023-04-21T06:48:46;99694.91;;;19.49;66.74
47726;BME280;33483;48.294;16.388;2023-04-21T06:51:14;99693.34;;;20.20;60.75
47726;BME280;33483;48.294;16.388;2023-04-21T06:53:47;99700.88;;;21.13;58.05
47726;BME280;33483;48.294;16.388;2023-04-21T06:56:15;99704.78;;;21.69;50.91
47726;BME280;33483;48.294;16.388;2023-04-21T06:58:42;99698.00;;;22.14;47.64
47726;BME280;33483;48.294;16.388;2023-04-21T07:01:09;99710.56;;;22.65;43.91
47726;BME280;33483;48.294;16.388;2023-04-21T07:03:37;99706.94;;;23.18;45.43
47726;BME280;33483;48.294;16.388;2023-04-21T07:06:05;99715.91;;;23.26;44.27
47726;BME280;33483;48.294;16.388;2023-04-21T07:08:32;99715.63;;;22.67;44.61
47726;BME280;33483;48.294;16.388;2023-04-21T07:10:59;99712.56;;;23.07;44.21
47726;BME280;33483;48.294;16.388;2023-04-21T07:13:27;99717.72;;;23.78;41.95
47726;BME280;33483;48.294;16.388;2023-04-21T07:15:56;99720.88;;;24.18;39.46
47726;BME280;33483;48.294;16.388;2023-04-21T07:18:24;99719.03;;;24.23;39.23
47726;BME280;33483;48.294;16.388;2023-04-21T07:20:52;99722.38;;;24.19;40.78
47726;BME280;33483;48.294;16.388;2023-04-21T07:23:19;99725.84;;;24.55;39.80
47726;BME280;33483;48.294;16.388;2023-04-21T07:25:46;99726.41;;;24.65;40.08
47726;BME280;33483;48.294;16.388;2023-04-21T07:28:18;99728.13;;;25.20;40.14
47726;BME280;33483;48.294;16.388;2023-04-21T07:30:45;99732.38;;;25.71;37.49
47726;BME280;33483;48.294;16.388;2023-04-21T07:33:13;99732.56;;;25.75;37.43
47726;BME280;33483;48.294;16.388;2023-04-21T07:35:40;99730.69;;;25.80;38.16
47726;BME280;33483;48.294;16.388;2023-04-21T07:38:09;99736.09;;;25.87;36.55
47726;BME280;33483;48.294;16.388;2023-04-21T07:40:36;99738.06;;;26.39;36.21
47726;BME280;33483;48.294;16.388;2023-04-21T07:43:04;99731.34;;;26.19;35.62
47726;BME280;33483;48.294;16.388;2023-04-21T07:45:31;99734.06;;;26.44;34.10
47726;BME280;33483;48.294;16.388;2023-04-21T07:47:58;99735.59;;;26.60;33.22
47726;BME280;33483;48.294;16.388;2023-04-21T07:50:26;99745.34;;;26.85;31.51
47726;BME280;33483;48.294;16.388;2023-04-21T07:52:53;99737.56;;;26.29;32.39
47726;BME280;33483;48.294;16.388;2023-04-21T07:55:22;99737.78;;;26.19;31.71
47726;BME280;33483;48.294;16.388;2023-04-21T07:57:50;99728.59;;;25.28;32.46
47726;BME280;33483;48.294;16.388;2023-04-21T08:00:17;99733.94;;;24.12;34.22
47726;BME280;33483;48.294;16.388;2023-04-21T08:02:44;99720.63;;;22.57;37.85
47726;BME280;33483;48.294;16.388;2023-04-21T08:05:11;99721.72;;;22.42;37.91
47726;BME280;33483;48.294;16.388;2023-04-21T08:07:44;99717.09;;;22.47;41.46
47726;BME280;33483;48.294;16.388;2023-04-21T08:10:11;99734.31;;;22.51;38.81
47726;BME280;33483;48.294;16.388;2023-04-21T08:12:39;99731.22;;;23.56;37.40
47726;BME280;33483;48.294;16.388;2023-04-21T08:15:06;99739.31;;;24.42;34.88
47726;BME280;33483;48.294;16.388;2023-04-21T08:17:38;99729.75;;;22.99;38.33
47726;BME280;33483;48.294;16.388;2023-04-21T08:20:06;99735.63;;;21.46;38.42
47726;BME280;33483;48.294;16.388;2023-04-21T08:22:33;99723.59;;;20.48;40.54
47726;BME280;33483;48.294;16.388;2023-04-21T08:25:04;99728.94;;;22.33;38.49
47726;BME280;33483;48.294;16.388;2023-04-21T08:27:31;99735.19;;;23.74;36.04
47726;BME280;33483;48.294;16.388;2023-04-21T08:29:58;99729.31;;;24.41;36.01
47726;BME280;33483;48.294;16.388;2023-04-21T08:32:26;99732.44;;;23.30;34.99
47726;BME280;33483;48.294;16.388;2023-04-21T08:34:53;99736.78;;;24.60;36.15
47726;BME280;33483;48.294;16.388;2023-04-21T08:37:24;99735.31;;;23.99;35.02
47726;BME280;33483;48.294;16.388;2023-04-21T08:39:51;99729.28;;;25.15;32.77
47726;BME280;33483;48.294;16.388;2023-04-21T08:42:19;99729.47;;;25.05;32.30
47726;BME280;33483;48.294;16.388;2023-04-21T08:44:49;99736.94;;;26.03;33.83
47726;BME280;33483;48.294;16.388;2023-04-21T08:47:16;99730.88;;;25.18;31.89
47726;BME280;33483;48.294;16.388;2023-04-21T08:49:43;99726.25;;;24.86;33.36
47726;BME280;33483;48.294;16.388;2023-04-21T08:52:12;99726.84;;;22.76;35.72
47726;BME280;33483;48.294;16.388;2023-04-21T08:54:40;99719.81;;;24.48;34.63
47726;BME280;33483;48.294;16.388;2023-04-21T08:57:07;99720.50;;;25.22;33.09
47726;BME280;33483;48.294;16.388;2023-04-21T08:59:43;99719.31;;;24.04;32.72
47726;BME280;33483;48.294;16.388;2023-04-21T09:02:15;99725.53;;;24.37;31.81
47726;BME280;33483;48.294;16.388;2023-04-21T09:04:44;99725.91;;;24.31;32.13
47726;BME280;33483;48.294;16.388;2023-04-21T09:07:29;99712.88;;;24.26;34.83
47726;BME280;33483;48.294;16.388;2023-04-21T09:09:56;99717.84;;;24.51;33.57
47726;BME280;33483;48.294;16.388;2023-04-21T09:12:24;99720.59;;;25.24;32.55
47726;BME280;33483;48.294;16.388;2023-04-21T09:14:51;99719.94;;;24.50;33.55
47726;BME280;33483;48.294;16.388;2023-04-21T09:17:20;99712.16;;;23.45;33.66
47726;BME280;33483;48.294;16.388;2023-04-21T09:19:50;99707.63;;;22.00;36.55
47726;BME280;33483;48.294;16.388;2023-04-21T09:22:18;99704.34;;;21.33;39.31
47726;BME280;33483;48.294;16.388;2023-04-21T09:24:45;99697.50;;;20.67;39.97
47726;BME280;33483;48.294;16.388;2023-04-21T09:27:14;99687.53;;;19.53;40.94
47726;BME280;33483;48.294;16.388;2023-04-21T09:29:45;99695.50;;;19.47;44.14
47726;BME280;33483;48.294;16.388;2023-04-21T09:32:17;99697.88;;;19.51;44.14
47726;BME280;33483;48.294;16.388;2023-04-21T09:34:47;99692.94;;;19.15;43.83
47726;BME280;33483;48.294;16.388;2023-04-21T09:37:27;99697.13;;;18.70;42.50
47726;BME280;33483;48.294;16.388;2023-04-21T09:39:57;99691.28;;;18.42;43.89
47726;BME280;33483;48.294;16.388;2023-04-21T09:42:29;99689.41;;;18.71;43.46
47726;BME280;33483;48.294;16.388;2023-04-21T09:44:56;99682.16;;;19.38;41.18
47726;BME280;33483;48.294;16.388;2023-04-21T09:47:31;99678.59;;;19.38;40.27
47726;BME280;33483;48.294;16.388;2023-04-21T09:50:01;99672.22;;;19.73;41.90
47726;BME280;33483;48.294;16.388;2023-04-21T09:52:30;99673.59;;;20.01;38.81
47726;BME280;33483;48.294;16.388;2023-04-21T09:55:00;99673.94;;;20.62;37.57
47726;BME280;33483;48.294;16.388;2023-04-21T09:57:31;99678.22;;;21.72;35.75
47726;BME280;33483;48.294;16.388;2023-04-21T09:59:59;99684.34;;;21.90;35.88
47726;BME280;33483;48.294;16.388;2023-04-21T10:02:29;99678.25;;;21.93;34.81
47726;BME280;33483;48.294;16.388;2023-04-21T10:04:56;99676.19;;;22.69;37.30
47726;BME280;33483;48.294;16.388;2023-04-21T10:07:27;99685.91;;;22.02;34.11
47726;BME280;33483;48.294;16.388;2023-04-21T10:09:55;99668.03;;;22.09;34.74
47726;BME280;33483;48.294;16.388;2023-04-21T10:12:23;99665.84;;;22.62;35.58
47726;BME280;33483;48.294;16.388;2023-04-21T10:14:51;99666.53;;;22.83;36.16
47726;BME280;33483;48.294;16.388;2023-04-21T10:17:23;99662.41;;;22.42;35.54
47726;BME280;33483;48.294;16.388;2023-04-21T10:19:54;99662.06;;;22.69;34.44
47726;BME280;33483;48.294;16.388;2023-04-21T10:24:55;99663.78;;;22.62;35.09
47726;BME280;33483;48.294;16.388;2023-04-21T10:27:39;99649.09;;;22.87;35.70
47726;BME280;33483;48.294;16.388;2023-04-21T10:30:22;99643.22;;;22.29;37.52
47726;BME280;33483;48.294;16.388;2023-04-21T10:33:10;99648.72;;;22.27;37.46
47726;BME280;33483;48.294;16.388;2023-04-21T10:35:57;99636.41;;;21.59;39.27
47726;BME280;33483;48.294;16.388;2023-04-21T10:38:39;99638.84;;;22.16;40.91
47726;BME280;33483;48.294;16.388;2023-04-21T10:43:57;99632.03;;;21.68;37.31
47726;BME280;33483;48.294;16.388;2023-04-21T10:46:38;99635.44;;;21.45;36.24
47726;BME280;33483;48.294;16.388;2023-04-21T10:49:07;99627.44;;;21.11;35.64
47726;BME280;33483;48.294;16.388;2023-04-21T10:54:28;99632.19;;;21.08;37.18
47726;BME280;33483;48.294;16.388;2023-04-21T10:56:57;99620.50;;;21.33;35.25
47726;BME280;33483;48.294;16.388;2023-04-21T10:59:25;99628.72;;;21.50;35.30
47726;BME280;33483;48.294;16.388;2023-04-21T11:01:53;99623.81;;;21.20;35.40
47726;BME280;33483;48.294;16.388;2023-04-21T11:04:20;99622.34;;;21.19;35.44
47726;BME280;33483;48.294;16.388;2023-04-21T11:09:44;99619.69;;;20.04;35.14
47726;BME280;33483;48.294;16.388;2023-04-21T11:12:14;99612.75;;;20.25;36.72
47726;BME280;33483;48.294;16.388;2023-04-21T11:14:42;99610.94;;;20.00;36.69
47726;BME280;33483;48.294;16.388;2023-04-21T11:17:10;99607.09;;;20.53;38.24
47726;BME280;33483;48.294;16.388;2023-04-21T11:19:40;99606.28;;;20.81;36.95
47726;BME280;33483;48.294;16.388;2023-04-21T11:22:07;99605.31;;;20.58;38.24
47726;BME280;33483;48.294;16.388;2023-04-21T11:24:35;99609.31;;;20.55;39.18
47726;BME280;33483;48.294;16.388;2023-04-21T11:27:02;99604.69;;;20.69;36.18
47726;BME280;33483;48.294;16.388;2023-04-21T11:29:33;99600.69;;;20.72;34.91
47726;BME280;33483;48.294;16.388;2023-04-21T11:32:01;99604.09;;;20.61;34.79
47726;BME280;33483;48.294;16.388;2023-04-21T11:34:32;99601.16;;;20.59;36.09
47726;BME280;33483;48.294;16.388;2023-04-21T11:36:59;99600.06;;;20.73;34.51
47726;BME280;33483;48.294;16.388;2023-04-21T11:39:26;99614.44;;;20.87;35.56
47726;BME280;33483;48.294;16.388;2023-04-21T11:41:53;99597.00;;;20.69;34.35
47726;BME280;33483;48.294;16.388;2023-04-21T11:44:31;99603.41;;;20.41;32.26
47726;BME280;33483;48.294;16.388;2023-04-21T11:49:44;99596.28;;;20.02;34.67
47726;BME280;33483;48.294;16.388;2023-04-21T11:55:13;99595.59;;;20.21;34.70
47726;BME280;33483;48.294;16.388;2023-04-21T11:57:45;99592.16;;;20.03;33.96
47726;BME280;33483;48.294;16.388;2023-04-21T12:00:13;99581.78;;;20.25;34.68
47726;BME280;33483;48.294;16.388;2023-04-21T12:02:41;99592.44;;;20.36;34.52
47726;BME280;33483;48.294;16.388;2023-04-21T12:05:10;99586.53;;;20.41;33.78
47726;BME280;33483;48.294;16.388;2023-04-21T12:10:08;99581.19;;;20.26;33.40
47726;BME280;33483;48.294;16.388;2023-04-21T12:12:36;99585.31;;;19.96;33.70
47726;BME280;33483;48.294;16.388;2023-04-21T12:15:07;99581.91;;;19.98;34.37
47726;BME280;33483;48.294;16.388;2023-04-21T12:17:53;99579.84;;;19.98;33.92
47726;BME280;33483;48.294;16.388;2023-04-21T12:20:22;99581.63;;;20.03;34.86
47726;BME280;33483;48.294;16.388;2023-04-21T12:22:49;99576.88;;;20.15;34.99
47726;BME280;33483;48.294;16.388;2023-04-21T12:25:17;99573.19;;;20.13;34.32
47726;BME280;33483;48.294;16.388;2023-04-21T12:27:51;99563.44;;;20.24;36.78
47726;BME280;33483;48.294;16.388;2023-04-21T12:30:19;99569.97;;;20.17;34.42
47726;BME280;33483;48.294;16.388;2023-04-21T12:32:46;99570.66;;;20.07;34.23
47726;BME280;33483;48.294;16.388;2023-04-21T12:35:14;99564.47;;;19.99;33.04
47726;BME280;33483;48.294;16.388;2023-04-21T12:37:41;99560.31;;;20.20;34.59
47726;BME280;33483;48.294;16.388;2023-04-21T12:40:11;99560.59;;;20.14;35.09
47726;BME280;33483;48.294;16.388;2023-04-21T12:42:41;99558.84;;;20.19;35.43
47726;BME280;33483;48.294;16.388;2023-04-21T12:45:09;99554.53;;;20.08;33.17
47726;BME280;33483;48.294;16.388;2023-04-21T12:47:36;99552.16;;;20.04;34.27
47726;BME280;33483;48.294;16.388;2023-04-21T12:50:03;99559.13;;;19.84;33.30
47726;BME280;33483;48.294;16.388;2023-04-21T12:52:30;99548.75;;;19.77;33.64
47726;BME280;33483;48.294;16.388;2023-04-21T12:54:58;99552.59;;;19.53;32.88
47726;BME280;33483;48.294;16.388;2023-04-21T12:57:25;99543.41;;;19.43;33.25
47726;BME280;33483;48.294;16.388;2023-04-21T12:59:52;99544.28;;;19.36;32.61
47726;BME280;33483;48.294;16.388;2023-04-21T13:02:20;99543.97;;;19.32;33.34
47726;BME280;33483;48.294;16.388;2023-04-21T13:04:49;99541.34;;;19.44;34.24
47726;BME280;33483;48.294;16.388;2023-04-21T13:07:16;99541.19;;;19.51;35.06
47726;BME280;33483;48.294;16.388;2023-04-21T13:09:49;99538.66;;;19.36;33.42
47726;BME280;33483;48.294;16.388;2023-04-21T13:12:16;99538.34;;;19.32;34.45
47726;BME280;33483;48.294;16.388;2023-04-21T13:14:44;99536.59;;;19.37;35.46
47726;BME280;33483;48.294;16.388;2023-04-21T13:17:11;99531.56;;;19.45;35.08
47726;BME280;33483;48.294;16.388;2023-04-21T13:19:41;99527.84;;;19.42;35.42